createdAt,value
2019-01-14T00:00:58.922Z,6.73
2019-01-14T00:03:28.538Z,5.47
2019-01-14T00:05:58.004Z,6.33
2019-01-14T00:08:27.477Z,6.83
2019-01-14T00:10:56.924Z,5.20
2019-01-14T00:13:26.398Z,5.43
2019-01-14T00:15:56.045Z,6.00
2019-01-14T00:18:25.565Z,6.53
2019-01-14T00:20:55.047Z,5.93
2019-01-14T00:23:24.481Z,8.17
2019-01-14T00:25:53.987Z,7.70
2019-01-14T00:28:23.440Z,10.10
2019-01-14T00:30:52.880Z,8.57
2019-01-14T00:33:22.415Z,7.40
2019-01-14T00:35:51.862Z,8.70
2019-01-14T00:38:21.343Z,12.70
2019-01-14T00:40:50.827Z,9.87
2019-01-14T00:43:20.264Z,10.80
2019-01-14T00:45:49.748Z,14.43
2019-01-14T00:48:19.195Z,14.17
2019-01-14T00:50:48.716Z,10.93
2019-01-14T00:53:18.159Z,7.30
2019-01-14T00:55:47.609Z,7.80
2019-01-14T00:58:17.082Z,8.10
2019-01-14T01:00:46.548Z,6.50
2019-01-14T01:03:16.022Z,13.33
2019-01-14T01:05:45.484Z,13.20
2019-01-14T01:08:14.973Z,7.40
2019-01-14T01:10:44.586Z,8.70
2019-01-14T01:13:14.037Z,6.80
2019-01-14T01:15:43.525Z,10.17
2019-01-14T01:18:12.976Z,6.60
2019-01-14T01:20:42.991Z,7.37
2019-01-14T01:23:12.436Z,7.83
2019-01-14T01:25:41.913Z,10.97
2019-01-14T01:28:11.394Z,10.10
2019-01-14T01:30:40.860Z,8.33
2019-01-14T01:33:10.311Z,11.33
2019-01-14T01:35:39.800Z,6.60
2019-01-14T01:38:09.232Z,9.23
2019-01-14T01:40:38.683Z,9.33
2019-01-14T01:43:08.158Z,12.33
2019-01-14T01:45:37.646Z,8.47
2019-01-14T01:48:07.079Z,6.93
2019-01-14T01:50:36.560Z,8.53
2019-01-14T01:53:06.046Z,10.77
2019-01-14T01:55:35.515Z,7.70
2019-01-14T01:58:05.193Z,7.20
2019-01-14T02:00:34.777Z,7.00
2019-01-14T02:03:04.387Z,7.90
2019-01-14T02:05:33.897Z,9.23
2019-01-14T02:08:03.373Z,10.37
2019-01-14T02:10:32.848Z,6.00
2019-01-14T02:13:02.292Z,12.10
2019-01-14T02:15:31.934Z,11.97
2019-01-14T02:18:01.382Z,7.90
2019-01-14T02:20:30.832Z,7.10
2019-01-14T02:23:00.300Z,9.23
2019-01-14T02:25:29.742Z,7.53
2019-01-14T02:27:59.215Z,15.13
2019-01-14T02:30:28.730Z,8.83
2019-01-14T02:32:58.204Z,12.50
2019-01-14T02:35:27.653Z,8.00
2019-01-14T02:37:57.132Z,11.80
2019-01-14T02:40:26.570Z,6.10
2019-01-14T02:42:56.078Z,8.33
2019-01-14T02:45:25.521Z,7.33
2019-01-14T02:47:54.975Z,10.40
2019-01-14T02:50:24.960Z,8.40
2019-01-14T02:52:54.402Z,9.83
2019-01-14T02:55:23.844Z,14.10
2019-01-14T21:20:50.510Z,17.50
2019-01-14T21:23:19.999Z,16.20
2019-01-14T21:25:49.460Z,17.37
2019-01-14T21:28:18.951Z,23.33
2019-01-14T21:30:48.692Z,17.50
2019-01-14T21:33:18.144Z,16.20
2019-01-14T21:35:47.599Z,19.83
2019-01-14T21:38:18.777Z,9.73
2019-01-14T21:40:48.250Z,13.63
2019-01-14T21:43:18.005Z,11.77
2019-01-14T21:45:47.515Z,14.30
2019-01-14T21:48:17.540Z,17.70
2019-01-14T21:50:47.095Z,14.80
2019-01-14T21:53:16.593Z,18.70
2019-01-14T21:55:46.045Z,10.33
2019-01-14T21:58:15.528Z,17.37
2019-01-14T22:00:44.988Z,11.50
2019-01-14T22:03:15.636Z,13.20
2019-01-14T22:05:45.310Z,18.17
2019-01-14T22:08:14.787Z,21.10
2019-01-14T22:10:44.259Z,20.57
2019-01-14T22:13:15.422Z,30.43
2019-01-14T22:15:44.876Z,25.00
2019-01-14T22:18:14.366Z,19.97
2019-01-14T22:20:43.842Z,27.40
2019-01-14T22:23:13.320Z,41.53
2019-01-14T22:25:42.812Z,46.47
2019-01-14T22:28:12.269Z,17.47
2019-01-14T22:30:41.767Z,24.23
2019-01-14T22:33:11.219Z,24.10
2019-01-14T22:35:40.671Z,26.77
2019-01-14T22:38:10.131Z,22.70
2019-01-14T22:40:39.582Z,20.93
2019-01-14T22:43:09.060Z,35.20
2019-01-14T22:45:38.514Z,18.83
2019-01-14T22:48:07.996Z,17.80
2019-01-14T22:50:37.459Z,27.97
2019-01-14T22:53:06.922Z,19.63
2019-01-14T22:55:36.395Z,31.83
2019-01-14T22:58:05.870Z,25.07
2019-01-14T23:00:59.122Z,15.70
2019-01-14T23:03:28.569Z,28.30
2019-01-14T23:05:58.009Z,12.27
2019-01-14T23:08:27.507Z,16.10
2019-01-14T23:10:56.962Z,19.27
2019-01-14T23:13:26.434Z,20.47
2019-01-14T23:15:56.147Z,18.00
2019-01-14T23:18:25.617Z,14.37
2019-01-14T23:20:55.087Z,14.60
2019-01-14T23:23:24.584Z,23.47
2019-01-14T23:25:54.041Z,21.57
2019-01-14T23:28:23.483Z,11.77
2019-01-14T23:30:52.973Z,13.73
2019-01-14T23:33:22.538Z,13.00
2019-01-14T23:35:52.051Z,16.83
2019-01-14T23:38:21.506Z,16.63
2019-01-14T23:40:51.061Z,17.43
2019-01-14T23:43:20.517Z,11.90
2019-01-14T23:45:49.993Z,17.70
2019-01-14T23:48:19.520Z,13.60
2019-01-14T23:50:49.133Z,18.40
2019-01-14T23:53:18.588Z,12.53
2019-01-14T23:55:48.093Z,13.83
2019-01-14T23:58:17.550Z,11.60
